Denver, Colorado
Traffic Map
Current Weather Conditions
Denver, Colorado
Broken Clouds
Broken Clouds
64°
Feels Like: 64°
Wind Chill: 64° Ceiling: 12000
Heat Index: 64° Visibility: 10mi
Dew Point: 30° Wind: 15mph
Humidity: 28% Direction: 80° (E)
Pressure: 29.62in Gusts: 18mph
Raw Report DataKBKF 242058Z 08013G16KT 10SM FEW080 BKN120 BKN220 18/M01 A2962 RMK AO2A SLP972 T01791011 57020
Traffic Incident Summary
Active as of:
Severity:
Category:
InformationThere was an issue retrieving the traffic information for this location. Please try a different location or try again shortly.
Advertisements
Track Severe Weather on mobile